sensor_id;sensor_type;location;lat;lon;timestamp;temperature;humidity
76607;DHT22;65498;50.916;4.698;2023-05-18T00:01:23;21.50;48.50
76607;DHT22;65498;50.916;4.698;2023-05-18T00:03:50;21.60;48.50
76607;DHT22;65498;50.916;4.698;2023-05-18T00:06:20;21.60;48.10
76607;DHT22;65498;50.916;4.698;2023-05-18T00:08:48;21.60;48.10
76607;DHT22;65498;50.916;4.698;2023-05-18T00:11:16;21.60;48.10
76607;DHT22;65498;50.916;4.698;2023-05-18T00:13:43;21.60;48.20
76607;DHT22;65498;50.916;4.698;2023-05-18T00:16:11;21.60;47.70
76607;DHT22;65498;50.916;4.698;2023-05-18T00:18:40;21.60;48.30
76607;DHT22;65498;50.916;4.698;2023-05-18T00:21:08;21.50;48.20
76607;DHT22;65498;50.916;4.698;2023-05-18T00:23:35;21.50;48.20
76607;DHT22;65498;50.916;4.698;2023-05-18T00:26:05;21.50;48.00
76607;DHT22;65498;50.916;4.698;2023-05-18T00:28:32;21.50;48.00
76607;DHT22;65498;50.916;4.698;2023-05-18T00:31:00;21.50;48.10
76607;DHT22;65498;50.916;4.698;2023-05-18T00:33:27;21.40;48.20
76607;DHT22;65498;50.916;4.698;2023-05-18T00:35:55;21.50;48.20
76607;DHT22;65498;50.916;4.698;2023-05-18T00:38:22;21.40;48.20
76607;DHT22;65498;50.916;4.698;2023-05-18T00:40:50;21.40;48.10
76607;DHT22;65498;50.916;4.698;2023-05-18T00:43:17;21.40;48.00
76607;DHT22;65498;50.916;4.698;2023-05-18T00:45:45;21.40;48.20
76607;DHT22;65498;50.916;4.698;2023-05-18T00:48:13;21.40;48.10
76607;DHT22;65498;50.916;4.698;2023-05-18T00:50:40;21.30;48.20
76607;DHT22;65498;50.916;4.698;2023-05-18T00:53:08;21.40;48.20
76607;DHT22;65498;50.916;4.698;2023-05-18T00:55:36;21.40;48.20
76607;DHT22;65498;50.916;4.698;2023-05-18T00:58:04;21.40;48.10
76607;DHT22;65498;50.916;4.698;2023-05-18T01:00:51;21.40;47.90
76607;DHT22;65498;50.916;4.698;2023-05-18T01:03:19;21.40;47.80
76607;DHT22;65498;50.916;4.698;2023-05-18T01:05:47;21.40;48.00
76607;DHT22;65498;50.916;4.698;2023-05-18T01:08:16;21.40;48.00
76607;DHT22;65498;50.916;4.698;2023-05-18T01:10:45;21.40;48.00
76607;DHT22;65498;50.916;4.698;2023-05-18T01:13:22;21.30;48.10
76607;DHT22;65498;50.916;4.698;2023-05-18T01:15:50;21.30;47.90
76607;DHT22;65498;50.916;4.698;2023-05-18T01:18:29;21.30;48.00
76607;DHT22;65498;50.916;4.698;2023-05-18T01:26:26;21.20;49.00
76607;DHT22;65498;50.916;4.698;2023-05-18T01:29:07;21.30;47.90
76607;DHT22;65498;50.916;4.698;2023-05-18T01:31:30;21.20;48.10
76607;DHT22;65498;50.916;4.698;2023-05-18T01:33:58;21.20;47.90
76607;DHT22;65498;50.916;4.698;2023-05-18T01:36:26;21.20;47.90
76607;DHT22;65498;50.916;4.698;2023-05-18T01:38:55;21.20;47.70
76607;DHT22;65498;50.916;4.698;2023-05-18T01:41:26;21.30;48.00
76607;DHT22;65498;50.916;4.698;2023-05-18T01:52:00;21.10;47.90
76607;DHT22;65498;50.916;4.698;2023-05-18T01:54:30;21.10;47.90
76607;DHT22;65498;50.916;4.698;2023-05-18T01:56:59;21.20;48.40
76607;DHT22;65498;50.916;4.698;2023-05-18T01:59:28;21.10;48.20
76607;DHT22;65498;50.916;4.698;2023-05-18T02:02:00;21.20;47.90
76607;DHT22;65498;50.916;4.698;2023-05-18T02:04:28;21.20;48.10
76607;DHT22;65498;50.916;4.698;2023-05-18T02:06:56;21.10;48.30
76607;DHT22;65498;50.916;4.698;2023-05-18T02:09:23;21.10;48.20
76607;DHT22;65498;50.916;4.698;2023-05-18T02:11:51;21.10;48.30
76607;DHT22;65498;50.916;4.698;2023-05-18T02:14:19;21.10;48.30
76607;DHT22;65498;50.916;4.698;2023-05-18T02:16:46;21.10;48.20
76607;DHT22;65498;50.916;4.698;2023-05-18T02:19:15;21.10;47.70
76607;DHT22;65498;50.916;4.698;2023-05-18T02:21:43;21.20;47.70
76607;DHT22;65498;50.916;4.698;2023-05-18T02:24:12;21.20;47.70
76607;DHT22;65498;50.916;4.698;2023-05-18T02:26:39;21.20;48.10
76607;DHT22;65498;50.916;4.698;2023-05-18T02:29:07;21.20;47.50
76607;DHT22;65498;50.916;4.698;2023-05-18T02:31:40;21.20;47.60
76607;DHT22;65498;50.916;4.698;2023-05-18T02:34:07;21.20;47.80
76607;DHT22;65498;50.916;4.698;2023-05-18T02:36:36;21.20;47.80
76607;DHT22;65498;50.916;4.698;2023-05-18T02:39:06;21.20;47.80
76607;DHT22;65498;50.916;4.698;2023-05-18T02:41:34;21.20;47.70
76607;DHT22;65498;50.916;4.698;2023-05-18T02:44:05;21.20;47.80
76607;DHT22;65498;50.916;4.698;2023-05-18T02:46:33;21.10;47.70
76607;DHT22;65498;50.916;4.698;2023-05-18T02:49:00;21.10;47.70
76607;DHT22;65498;50.916;4.698;2023-05-18T02:51:28;21.10;47.20
76607;DHT22;65498;50.916;4.698;2023-05-18T02:53:56;21.10;47.40
76607;DHT22;65498;50.916;4.698;2023-05-18T02:56:24;21.10;47.70
76607;DHT22;65498;50.916;4.698;2023-05-18T02:58:51;21.00;48.10
76607;DHT22;65498;50.916;4.698;2023-05-18T03:01:21;21.10;47.70
76607;DHT22;65498;50.916;4.698;2023-05-18T03:03:50;21.10;48.00
76607;DHT22;65498;50.916;4.698;2023-05-18T03:06:19;21.10;47.90
76607;DHT22;65498;50.916;4.698;2023-05-18T03:08:53;21.20;47.40
76607;DHT22;65498;50.916;4.698;2023-05-18T03:11:21;21.10;47.80
76607;DHT22;65498;50.916;4.698;2023-05-18T03:13:49;21.20;47.90
76607;DHT22;65498;50.916;4.698;2023-05-18T03:16:17;21.10;47.30
76607;DHT22;65498;50.916;4.698;2023-05-18T03:18:44;21.10;47.60
76607;DHT22;65498;50.916;4.698;2023-05-18T03:21:12;21.10;47.70
76607;DHT22;65498;50.916;4.698;2023-05-18T03:23:39;21.10;47.40
76607;DHT22;65498;50.916;4.698;2023-05-18T03:26:07;21.10;47.30
76607;DHT22;65498;50.916;4.698;2023-05-18T03:28:37;21.10;47.70
76607;DHT22;65498;50.916;4.698;2023-05-18T03:31:05;21.10;47.20
76607;DHT22;65498;50.916;4.698;2023-05-18T03:33:33;21.10;47.50
76607;DHT22;65498;50.916;4.698;2023-05-18T03:36:03;21.10;47.30
76607;DHT22;65498;50.916;4.698;2023-05-18T03:38:31;21.00;47.90
76607;DHT22;65498;50.916;4.698;2023-05-18T03:40:58;21.10;47.20
76607;DHT22;65498;50.916;4.698;2023-05-18T03:43:26;21.10;47.30
76607;DHT22;65498;50.916;4.698;2023-05-18T03:45:55;21.10;47.50
76607;DHT22;65498;50.916;4.698;2023-05-18T03:48:23;21.00;47.20
76607;DHT22;65498;50.916;4.698;2023-05-18T03:50:51;21.10;47.40
76607;DHT22;65498;50.916;4.698;2023-05-18T03:53:18;21.00;47.40
76607;DHT22;65498;50.916;4.698;2023-05-18T03:55:47;21.00;47.80
76607;DHT22;65498;50.916;4.698;2023-05-18T03:58:16;21.00;47.50
76607;DHT22;65498;50.916;4.698;2023-05-18T04:00:45;21.00;47.70
76607;DHT22;65498;50.916;4.698;2023-05-18T04:03:12;21.00;47.70
76607;DHT22;65498;50.916;4.698;2023-05-18T04:05:43;20.90;47.30
76607;DHT22;65498;50.916;4.698;2023-05-18T04:08:11;20.90;47.50
76607;DHT22;65498;50.916;4.698;2023-05-18T04:10:43;20.90;47.50
76607;DHT22;65498;50.916;4.698;2023-05-18T04:13:11;20.90;47.70
76607;DHT22;65498;50.916;4.698;2023-05-18T04:15:38;20.90;47.70
76607;DHT22;65498;50.916;4.698;2023-05-18T04:18:06;20.80;47.60
76607;DHT22;65498;50.916;4.698;2023-05-18T04:20:33;20.80;47.60
76607;DHT22;65498;50.916;4.698;2023-05-18T04:23:01;20.80;47.80
76607;DHT22;65498;50.916;4.698;2023-05-18T04:25:29;20.80;47.40
76607;DHT22;65498;50.916;4.698;2023-05-18T04:27:56;20.80;47.90
76607;DHT22;65498;50.916;4.698;2023-05-18T04:30:25;20.80;47.90
76607;DHT22;65498;50.916;4.698;2023-05-18T04:32:55;20.80;47.70
76607;DHT22;65498;50.916;4.698;2023-05-18T04:35:24;20.80;47.90
76607;DHT22;65498;50.916;4.698;2023-05-18T04:37:52;20.80;48.00
76607;DHT22;65498;50.916;4.698;2023-05-18T04:40:20;20.80;47.70
76607;DHT22;65498;50.916;4.698;2023-05-18T04:42:48;20.70;47.90
76607;DHT22;65498;50.916;4.698;2023-05-18T04:45:16;20.70;47.80
76607;DHT22;65498;50.916;4.698;2023-05-18T04:47:47;20.70;47.90
76607;DHT22;65498;50.916;4.698;2023-05-18T04:50:17;20.70;47.80
76607;DHT22;65498;50.916;4.698;2023-05-18T04:52:46;20.70;48.00
76607;DHT22;65498;50.916;4.698;2023-05-18T04:55:19;20.80;47.80
76607;DHT22;65498;50.916;4.698;2023-05-18T04:57:54;20.70;47.90
76607;DHT22;65498;50.916;4.698;2023-05-18T05:00:26;20.70;47.70
76607;DHT22;65498;50.916;4.698;2023-05-18T05:02:58;20.70;47.80
76607;DHT22;65498;50.916;4.698;2023-05-18T05:05:25;20.70;47.90
76607;DHT22;65498;50.916;4.698;2023-05-18T05:07:53;20.70;48.00
76607;DHT22;65498;50.916;4.698;2023-05-18T05:10:21;20.70;47.90
76607;DHT22;65498;50.916;4.698;2023-05-18T05:12:50;20.70;47.90
76607;DHT22;65498;50.916;4.698;2023-05-18T05:15:18;20.70;47.90
76607;DHT22;65498;50.916;4.698;2023-05-18T05:17:46;20.70;47.90
76607;DHT22;65498;50.916;4.698;2023-05-18T05:20:14;20.70;47.90
76607;DHT22;65498;50.916;4.698;2023-05-18T05:22:42;20.70;48.20
76607;DHT22;65498;50.916;4.698;2023-05-18T05:25:10;20.70;47.50
76607;DHT22;65498;50.916;4.698;2023-05-18T05:27:37;20.70;47.90
76607;DHT22;65498;50.916;4.698;2023-05-18T05:30:06;20.70;47.50
76607;DHT22;65498;50.916;4.698;2023-05-18T05:32:34;20.80;47.80
76607;DHT22;65498;50.916;4.698;2023-05-18T05:35:02;20.80;47.40
76607;DHT22;65498;50.916;4.698;2023-05-18T05:37:30;20.80;47.50
76607;DHT22;65498;50.916;4.698;2023-05-18T05:39:57;20.90;47.60
76607;DHT22;65498;50.916;4.698;2023-05-18T05:42:25;21.00;47.80
76607;DHT22;65498;50.916;4.698;2023-05-18T05:44:52;20.90;47.40
76607;DHT22;65498;50.916;4.698;2023-05-18T05:47:20;20.90;47.20
76607;DHT22;65498;50.916;4.698;2023-05-18T05:49:47;20.90;47.20
76607;DHT22;65498;50.916;4.698;2023-05-18T05:52:15;20.90;47.30
76607;DHT22;65498;50.916;4.698;2023-05-18T05:54:42;20.90;47.50
76607;DHT22;65498;50.916;4.698;2023-05-18T05:57:10;20.90;47.40
76607;DHT22;65498;50.916;4.698;2023-05-18T05:59:37;20.90;47.30
76607;DHT22;65498;50.916;4.698;2023-05-18T06:02:06;20.90;47.60
76607;DHT22;65498;50.916;4.698;2023-05-18T06:04:33;20.90;47.70
76607;DHT22;65498;50.916;4.698;2023-05-18T06:07:01;20.90;47.50
76607;DHT22;65498;50.916;4.698;2023-05-18T06:09:28;21.00;47.50
76607;DHT22;65498;50.916;4.698;2023-05-18T06:11:56;21.00;47.40
76607;DHT22;65498;50.916;4.698;2023-05-18T06:14:24;20.90;47.00
76607;DHT22;65498;50.916;4.698;2023-05-18T06:16:51;20.90;46.80
76607;DHT22;65498;50.916;4.698;2023-05-18T06:19:19;20.90;47.30
76607;DHT22;65498;50.916;4.698;2023-05-18T06:21:46;20.90;47.20
76607;DHT22;65498;50.916;4.698;2023-05-18T06:24:14;20.90;46.80
76607;DHT22;65498;50.916;4.698;2023-05-18T06:26:42;20.90;47.30
76607;DHT22;65498;50.916;4.698;2023-05-18T06:29:10;20.90;47.50
76607;DHT22;65498;50.916;4.698;2023-05-18T06:31:38;20.90;47.30
76607;DHT22;65498;50.916;4.698;2023-05-18T06:34:05;20.90;47.30
76607;DHT22;65498;50.916;4.698;2023-05-18T06:36:33;20.90;47.50
76607;DHT22;65498;50.916;4.698;2023-05-18T06:39:00;20.90;46.30
76607;DHT22;65498;50.916;4.698;2023-05-18T06:41:28;20.90;47.30
76607;DHT22;65498;50.916;4.698;2023-05-18T06:43:56;20.90;47.30
76607;DHT22;65498;50.916;4.698;2023-05-18T06:46:25;20.80;46.70
76607;DHT22;65498;50.916;4.698;2023-05-18T06:48:53;20.80;47.30
76607;DHT22;65498;50.916;4.698;2023-05-18T06:51:21;20.80;46.70
76607;DHT22;65498;50.916;4.698;2023-05-18T06:53:48;20.80;47.00
76607;DHT22;65498;50.916;4.698;2023-05-18T06:56:16;20.80;47.10
76607;DHT22;65498;50.916;4.698;2023-05-18T06:58:44;20.90;46.80
76607;DHT22;65498;50.916;4.698;2023-05-18T07:01:11;20.80;47.10
76607;DHT22;65498;50.916;4.698;2023-05-18T07:03:39;20.80;47.10
76607;DHT22;65498;50.916;4.698;2023-05-18T07:06:07;20.80;47.40
76607;DHT22;65498;50.916;4.698;2023-05-18T07:08:35;20.90;46.90
76607;DHT22;65498;50.916;4.698;2023-05-18T07:11:06;20.80;46.90
76607;DHT22;65498;50.916;4.698;2023-05-18T07:13:34;20.80;46.80
76607;DHT22;65498;50.916;4.698;2023-05-18T07:16:21;20.80;47.50
76607;DHT22;65498;50.916;4.698;2023-05-18T07:18:49;20.80;46.70
76607;DHT22;65498;50.916;4.698;2023-05-18T07:21:16;20.80;46.60
76607;DHT22;65498;50.916;4.698;2023-05-18T07:23:44;20.80;46.90
76607;DHT22;65498;50.916;4.698;2023-05-18T07:26:11;20.80;47.00
76607;DHT22;65498;50.916;4.698;2023-05-18T07:28:39;20.90;47.50
76607;DHT22;65498;50.916;4.698;2023-05-18T07:31:06;20.90;47.80
76607;DHT22;65498;50.916;4.698;2023-05-18T07:33:34;20.90;47.20
76607;DHT22;65498;50.916;4.698;2023-05-18T07:36:01;20.90;47.40
76607;DHT22;65498;50.916;4.698;2023-05-18T07:38:29;20.90;48.20
76607;DHT22;65498;50.916;4.698;2023-05-18T07:40:57;20.90;47.70
76607;DHT22;65498;50.916;4.698;2023-05-18T07:43:25;20.90;47.50
76607;DHT22;65498;50.916;4.698;2023-05-18T07:45:53;20.90;47.30
76607;DHT22;65498;50.916;4.698;2023-05-18T07:48:20;20.90;46.70
76607;DHT22;65498;50.916;4.698;2023-05-18T07:50:48;20.90;46.60
76607;DHT22;65498;50.916;4.698;2023-05-18T07:53:15;20.90;46.60
76607;DHT22;65498;50.916;4.698;2023-05-18T07:55:43;20.90;47.00
76607;DHT22;65498;50.916;4.698;2023-05-18T07:58:11;20.90;46.80
76607;DHT22;65498;50.916;4.698;2023-05-18T08:00:38;20.90;47.00
76607;DHT22;65498;50.916;4.698;2023-05-18T08:03:06;21.00;48.90
76607;DHT22;65498;50.916;4.698;2023-05-18T08:05:34;21.10;48.80
76607;DHT22;65498;50.916;4.698;2023-05-18T08:08:02;21.10;48.50
76607;DHT22;65498;50.916;4.698;2023-05-18T08:10:29;21.10;48.60
76607;DHT22;65498;50.916;4.698;2023-05-18T08:12:57;21.10;48.60
76607;DHT22;65498;50.916;4.698;2023-05-18T08:15:24;21.20;48.60
76607;DHT22;65498;50.916;4.698;2023-05-18T08:17:52;21.20;49.50
76607;DHT22;65498;50.916;4.698;2023-05-18T08:20:20;21.20;47.30
76607;DHT22;65498;50.916;4.698;2023-05-18T08:22:48;21.10;47.80
76607;DHT22;65498;50.916;4.698;2023-05-18T08:25:16;21.10;47.30
76607;DHT22;65498;50.916;4.698;2023-05-18T08:27:43;21.00;47.90
76607;DHT22;65498;50.916;4.698;2023-05-18T08:30:12;21.00;48.40
76607;DHT22;65498;50.916;4.698;2023-05-18T08:32:39;21.00;47.80
76607;DHT22;65498;50.916;4.698;2023-05-18T08:35:07;21.00;47.70
76607;DHT22;65498;50.916;4.698;2023-05-18T08:37:35;21.00;49.70
76607;DHT22;65498;50.916;4.698;2023-05-18T08:40:04;21.00;48.80
76607;DHT22;65498;50.916;4.698;2023-05-18T08:42:38;21.00;49.80
76607;DHT22;65498;50.916;4.698;2023-05-18T08:45:39;21.00;50.90
76607;DHT22;65498;50.916;4.698;2023-05-18T08:48:10;21.10;50.90
76607;DHT22;65498;50.916;4.698;2023-05-18T08:50:39;21.20;51.20
76607;DHT22;65498;50.916;4.698;2023-05-18T08:53:09;21.20;51.20
76607;DHT22;65498;50.916;4.698;2023-05-18T08:55:37;21.20;51.10
76607;DHT22;65498;50.916;4.698;2023-05-18T08:58:07;21.20;50.90
76607;DHT22;65498;50.916;4.698;2023-05-18T09:00:36;21.20;50.70
76607;DHT22;65498;50.916;4.698;2023-05-18T09:03:04;21.30;50.60
76607;DHT22;65498;50.916;4.698;2023-05-18T09:05:32;21.30;50.60
76607;DHT22;65498;50.916;4.698;2023-05-18T09:08:00;21.30;50.50
76607;DHT22;65498;50.916;4.698;2023-05-18T09:10:30;21.30;50.60
76607;DHT22;65498;50.916;4.698;2023-05-18T09:12:58;21.30;50.60
76607;DHT22;65498;50.916;4.698;2023-05-18T09:15:28;21.30;50.80
76607;DHT22;65498;50.916;4.698;2023-05-18T09:17:55;21.30;50.60
76607;DHT22;65498;50.916;4.698;2023-05-18T09:20:24;21.30;50.80
76607;DHT22;65498;50.916;4.698;2023-05-18T09:22:53;21.30;51.20
76607;DHT22;65498;50.916;4.698;2023-05-18T09:25:20;21.30;50.80
76607;DHT22;65498;50.916;4.698;2023-05-18T09:27:49;21.30;50.70
76607;DHT22;65498;50.916;4.698;2023-05-18T09:30:43;21.40;50.80
76607;DHT22;65498;50.916;4.698;2023-05-18T09:33:17;21.40;50.90
76607;DHT22;65498;50.916;4.698;2023-05-18T09:35:48;21.40;50.90
76607;DHT22;65498;50.916;4.698;2023-05-18T09:38:18;21.40;51.00
76607;DHT22;65498;50.916;4.698;2023-05-18T09:40:50;21.40;50.80
76607;DHT22;65498;50.916;4.698;2023-05-18T09:43:18;21.30;50.10
76607;DHT22;65498;50.916;4.698;2023-05-18T09:45:48;21.30;51.00
76607;DHT22;65498;50.916;4.698;2023-05-18T09:48:16;21.30;51.10
76607;DHT22;65498;50.916;4.698;2023-05-18T09:50:44;21.30;50.40
76607;DHT22;65498;50.916;4.698;2023-05-18T09:53:13;21.30;50.70
76607;DHT22;65498;50.916;4.698;2023-05-18T09:55:46;21.30;50.70
76607;DHT22;65498;50.916;4.698;2023-05-18T09:58:14;21.30;51.00
76607;DHT22;65498;50.916;4.698;2023-05-18T10:00:48;21.20;51.50
76607;DHT22;65498;50.916;4.698;2023-05-18T10:03:19;21.20;51.20
76607;DHT22;65498;50.916;4.698;2023-05-18T10:05:47;21.20;51.20
76607;DHT22;65498;50.916;4.698;2023-05-18T10:08:16;21.20;51.00
76607;DHT22;65498;50.916;4.698;2023-05-18T10:10:45;21.20;51.20
76607;DHT22;65498;50.916;4.698;2023-05-18T10:13:15;21.20;51.60
76607;DHT22;65498;50.916;4.698;2023-05-18T10:15:53;21.20;51.10
76607;DHT22;65498;50.916;4.698;2023-05-18T10:18:23;21.20;51.50
76607;DHT22;65498;50.916;4.698;2023-05-18T10:20:57;21.20;51.40
76607;DHT22;65498;50.916;4.698;2023-05-18T10:23:21;21.20;52.20
76607;DHT22;65498;50.916;4.698;2023-05-18T10:25:50;21.20;52.00
76607;DHT22;65498;50.916;4.698;2023-05-18T10:28:25;21.20;52.10
76607;DHT22;65498;50.916;4.698;2023-05-18T10:30:55;21.20;52.00
76607;DHT22;65498;50.916;4.698;2023-05-18T10:33:26;21.20;51.80
76607;DHT22;65498;50.916;4.698;2023-05-18T10:35:54;21.20;51.60
76607;DHT22;65498;50.916;4.698;2023-05-18T10:38:24;21.20;51.30
76607;DHT22;65498;50.916;4.698;2023-05-18T10:40:54;21.20;51.60
76607;DHT22;65498;50.916;4.698;2023-05-18T10:43:24;21.20;51.70
76607;DHT22;65498;50.916;4.698;2023-05-18T10:45:58;21.20;51.20
76607;DHT22;65498;50.916;4.698;2023-05-18T10:48:27;21.30;51.40
76607;DHT22;65498;50.916;4.698;2023-05-18T10:50:56;21.30;51.30
76607;DHT22;65498;50.916;4.698;2023-05-18T10:53:25;21.30;51.50
76607;DHT22;65498;50.916;4.698;2023-05-18T10:55:54;21.30;51.80
76607;DHT22;65498;50.916;4.698;2023-05-18T10:58:24;21.30;52.40
76607;DHT22;65498;50.916;4.698;2023-05-18T11:00:57;21.30;51.80
76607;DHT22;65498;50.916;4.698;2023-05-18T11:03:26;21.30;51.60
76607;DHT22;65498;50.916;4.698;2023-05-18T11:06:08;21.30;52.00
76607;DHT22;65498;50.916;4.698;2023-05-18T11:08:44;21.30;52.10
76607;DHT22;65498;50.916;4.698;2023-05-18T11:11:11;21.30;52.00
76607;DHT22;65498;50.916;4.698;2023-05-18T11:13:46;21.40;51.90
76607;DHT22;65498;50.916;4.698;2023-05-18T11:16:14;21.30;51.90
76607;DHT22;65498;50.916;4.698;2023-05-18T11:18:50;21.40;52.00
76607;DHT22;65498;50.916;4.698;2023-05-18T11:21:29;21.30;52.00
76607;DHT22;65498;50.916;4.698;2023-05-18T11:26:52;21.40;51.90
76607;DHT22;65498;50.916;4.698;2023-05-18T11:29:33;21.40;52.00
76607;DHT22;65498;50.916;4.698;2023-05-18T11:32:00;21.40;52.00
76607;DHT22;65498;50.916;4.698;2023-05-18T11:34:39;21.40;51.90
76607;DHT22;65498;50.916;4.698;2023-05-18T11:37:08;21.40;52.00
76607;DHT22;65498;50.916;4.698;2023-05-18T11:39:36;21.30;51.90
76607;DHT22;65498;50.916;4.698;2023-05-18T11:42:09;21.30;52.00
76607;DHT22;65498;50.916;4.698;2023-05-18T11:44:37;21.40;52.10
76607;DHT22;65498;50.916;4.698;2023-05-18T11:47:09;21.40;52.00
76607;DHT22;65498;50.916;4.698;2023-05-18T11:49:45;21.40;52.20
76607;DHT22;65498;50.916;4.698;2023-05-18T11:52:20;21.40;52.20
76607;DHT22;65498;50.916;4.698;2023-05-18T11:54:52;21.40;51.90
76607;DHT22;65498;50.916;4.698;2023-05-18T12:00:05;21.40;51.40
76607;DHT22;65498;50.916;4.698;2023-05-18T12:02:33;21.40;50.00
76607;DHT22;65498;50.916;4.698;2023-05-18T12:05:05;21.50;50.10
76607;DHT22;65498;50.916;4.698;2023-05-18T12:07:31;21.50;50.00
76607;DHT22;65498;50.916;4.698;2023-05-18T12:10:02;21.50;50.90
76607;DHT22;65498;50.916;4.698;2023-05-18T12:12:30;21.50;51.30
76607;DHT22;65498;50.916;4.698;2023-05-18T12:15:00;21.50;51.30
76607;DHT22;65498;50.916;4.698;2023-05-18T12:17:38;21.50;50.50
76607;DHT22;65498;50.916;4.698;2023-05-18T12:20:10;21.50;51.00
76607;DHT22;65498;50.916;4.698;2023-05-18T12:22:40;21.50;51.30
76607;DHT22;65498;50.916;4.698;2023-05-18T12:25:08;21.40;50.90
76607;DHT22;65498;50.916;4.698;2023-05-18T12:27:41;21.50;50.90
76607;DHT22;65498;50.916;4.698;2023-05-18T12:30:12;21.50;53.20
76607;DHT22;65498;50.916;4.698;2023-05-18T12:32:56;21.60;52.10
76607;DHT22;65498;50.916;4.698;2023-05-18T12:35:25;21.60;57.40
76607;DHT22;65498;50.916;4.698;2023-05-18T12:37:53;21.60;56.70
76607;DHT22;65498;50.916;4.698;2023-05-18T12:40:22;21.60;59.80
76607;DHT22;65498;50.916;4.698;2023-05-18T12:42:57;21.60;63.50
76607;DHT22;65498;50.916;4.698;2023-05-18T12:45:32;21.70;60.30
76607;DHT22;65498;50.916;4.698;2023-05-18T12:48:04;21.70;63.00
76607;DHT22;65498;50.916;4.698;2023-05-18T12:50:52;21.60;59.30
76607;DHT22;65498;50.916;4.698;2023-05-18T12:53:21;21.60;58.60
76607;DHT22;65498;50.916;4.698;2023-05-18T12:55:56;21.60;53.90
76607;DHT22;65498;50.916;4.698;2023-05-18T12:58:25;21.70;54.40
76607;DHT22;65498;50.916;4.698;2023-05-18T13:00:52;21.70;53.40
76607;DHT22;65498;50.916;4.698;2023-05-18T13:03:20;21.70;53.10
76607;DHT22;65498;50.916;4.698;2023-05-18T13:06:06;21.70;53.10
76607;DHT22;65498;50.916;4.698;2023-05-18T13:08:34;21.70;53.80
76607;DHT22;65498;50.916;4.698;2023-05-18T13:11:03;21.70;53.90
76607;DHT22;65498;50.916;4.698;2023-05-18T13:13:32;21.70;53.20
76607;DHT22;65498;50.916;4.698;2023-05-18T13:16:00;21.80;53.30
76607;DHT22;65498;50.916;4.698;2023-05-18T13:18:27;21.80;53.10
76607;DHT22;65498;50.916;4.698;2023-05-18T13:20:56;21.70;53.10
76607;DHT22;65498;50.916;4.698;2023-05-18T13:23:26;21.70;53.10
76607;DHT22;65498;50.916;4.698;2023-05-18T13:25:54;21.70;53.90
76607;DHT22;65498;50.916;4.698;2023-05-18T13:28:23;21.70;52.60
76607;DHT22;65498;50.916;4.698;2023-05-18T13:30:50;21.70;52.80
76607;DHT22;65498;50.916;4.698;2023-05-18T13:33:18;21.70;52.20
76607;DHT22;65498;50.916;4.698;2023-05-18T13:35:46;21.70;52.50
76607;DHT22;65498;50.916;4.698;2023-05-18T13:38:15;21.70;52.40
76607;DHT22;65498;50.916;4.698;2023-05-18T13:40:42;21.80;52.60
76607;DHT22;65498;50.916;4.698;2023-05-18T13:43:11;21.80;52.40
76607;DHT22;65498;50.916;4.698;2023-05-18T13:45:39;21.80;52.40
76607;DHT22;65498;50.916;4.698;2023-05-18T13:48:06;21.80;52.30
76607;DHT22;65498;50.916;4.698;2023-05-18T13:50:35;21.80;52.30
76607;DHT22;65498;50.916;4.698;2023-05-18T13:53:03;21.80;52.20
76607;DHT22;65498;50.916;4.698;2023-05-18T13:55:30;21.80;52.30
76607;DHT22;65498;50.916;4.698;2023-05-18T13:57:58;21.90;52.30
76607;DHT22;65498;50.916;4.698;2023-05-18T14:00:26;21.90;52.30
76607;DHT22;65498;50.916;4.698;2023-05-18T14:02:53;21.90;52.20
76607;DHT22;65498;50.916;4.698;2023-05-18T14:05:21;21.90;52.10
76607;DHT22;65498;50.916;4.698;2023-05-18T14:07:49;21.90;52.00
76607;DHT22;65498;50.916;4.698;2023-05-18T14:10:18;22.00;52.10
76607;DHT22;65498;50.916;4.698;2023-05-18T14:12:46;22.00;52.00
76607;DHT22;65498;50.916;4.698;2023-05-18T14:15:14;21.90;51.80
76607;DHT22;65498;50.916;4.698;2023-05-18T14:17:42;22.00;51.90
76607;DHT22;65498;50.916;4.698;2023-05-18T14:20:10;22.00;51.80
76607;DHT22;65498;50.916;4.698;2023-05-18T14:22:38;22.00;51.70
76607;DHT22;65498;50.916;4.698;2023-05-18T14:25:07;22.10;51.60
76607;DHT22;65498;50.916;4.698;2023-05-18T14:27:35;22.10;51.50
76607;DHT22;65498;50.916;4.698;2023-05-18T14:30:03;22.10;51.40
76607;DHT22;65498;50.916;4.698;2023-05-18T14:32:31;22.10;51.40
76607;DHT22;65498;50.916;4.698;2023-05-18T14:34:59;22.10;51.40
76607;DHT22;65498;50.916;4.698;2023-05-18T14:37:26;22.10;51.30
76607;DHT22;65498;50.916;4.698;2023-05-18T14:39:54;22.10;51.30
76607;DHT22;65498;50.916;4.698;2023-05-18T14:42:21;22.10;51.40
76607;DHT22;65498;50.916;4.698;2023-05-18T14:44:49;22.10;51.30
76607;DHT22;65498;50.916;4.698;2023-05-18T14:47:16;22.10;51.20
76607;DHT22;65498;50.916;4.698;2023-05-18T14:49:44;22.10;51.10
76607;DHT22;65498;50.916;4.698;2023-05-18T14:52:12;22.20;51.00
76607;DHT22;65498;50.916;4.698;2023-05-18T14:54:39;22.20;50.90
76607;DHT22;65498;50.916;4.698;2023-05-18T14:57:07;22.20;50.90
76607;DHT22;65498;50.916;4.698;2023-05-18T14:59:35;22.20;51.50
76607;DHT22;65498;50.916;4.698;2023-05-18T15:02:03;22.20;50.80
76607;DHT22;65498;50.916;4.698;2023-05-18T15:04:30;22.20;50.70
76607;DHT22;65498;50.916;4.698;2023-05-18T15:06:58;22.20;50.70
76607;DHT22;65498;50.916;4.698;2023-05-18T15:09:25;22.20;50.70
76607;DHT22;65498;50.916;4.698;2023-05-18T15:11:53;22.20;50.80
76607;DHT22;65498;50.916;4.698;2023-05-18T15:14:21;22.20;50.80
76607;DHT22;65498;50.916;4.698;2023-05-18T15:16:48;22.20;50.80
76607;DHT22;65498;50.916;4.698;2023-05-18T15:19:16;22.20;50.60
76607;DHT22;65498;50.916;4.698;2023-05-18T15:21:43;22.20;50.50
76607;DHT22;65498;50.916;4.698;2023-05-18T15:24:11;22.20;50.50
76607;DHT22;65498;50.916;4.698;2023-05-18T15:26:39;22.20;50.50
76607;DHT22;65498;50.916;4.698;2023-05-18T15:29:07;22.20;50.50
76607;DHT22;65498;50.916;4.698;2023-05-18T15:31:35;22.20;50.50
76607;DHT22;65498;50.916;4.698;2023-05-18T15:34:04;22.30;50.50
76607;DHT22;65498;50.916;4.698;2023-05-18T15:36:32;22.20;50.40
76607;DHT22;65498;50.916;4.698;2023-05-18T15:39:01;22.20;50.40
76607;DHT22;65498;50.916;4.698;2023-05-18T15:41:32;22.30;50.40
76607;DHT22;65498;50.916;4.698;2023-05-18T15:44:00;22.20;50.40
76607;DHT22;65498;50.916;4.698;2023-05-18T15:46:28;22.30;50.50
76607;DHT22;65498;50.916;4.698;2023-05-18T15:49:01;22.30;50.30
76607;DHT22;65498;50.916;4.698;2023-05-18T15:51:29;22.30;50.20
76607;DHT22;65498;50.916;4.698;2023-05-18T15:53:57;22.30;50.10
76607;DHT22;65498;50.916;4.698;2023-05-18T15:56:25;22.30;50.10
76607;DHT22;65498;50.916;4.698;2023-05-18T15:58:53;22.30;50.10
76607;DHT22;65498;50.916;4.698;2023-05-18T16:01:20;22.30;50.10